Time;durP1;ratioP1;P1;durP2;ratioP2;P2;SDS_P1;SDS_P2;PMS_P1;PMS_P2;Temp;Humidity;BMP_temperature;BMP_pressure;BME280_temperature;BME280_humidity;BME280_pressure;Samples;Min_cycle;Max_cycle;Signal;HPM_P1;HPM_P2
2023/06/28 00:00:02;;;;;;;;;;;16.20;48.70;;;;;;6306856;22;19924;-70
2023/06/28 00:02:28;;;;;;;;;;;16.20;48.80;;;;;;6279566;22;19915;-69
2023/06/28 00:04:54;;;;;;;;;;;16.20;49.20;;;;;;6306889;22;19957;-69
2023/06/28 00:07:20;;;;;;;;;;;16.20;49.20;;;;;;6306702;22;19993;-70
2023/06/28 00:09:45;;;;;;;;;;;16.10;49.20;;;;;;6279282;22;19934;-69
2023/06/28 00:12:10;;;;;;;;;;;16.10;49.30;;;;;;6307065;22;19934;-70
2023/06/28 00:14:36;;;;;;;;;;;16.00;49.30;;;;;;6307116;22;19907;-69
2023/06/28 00:17:01;;;;;;;;;;;16.00;49.50;;;;;;6306934;22;19984;-69
2023/06/28 00:19:27;;;;;;;;;;;16.00;49.70;;;;;;6306674;22;19903;-69
2023/06/28 00:21:53;;;;;;;;;;;16.00;49.70;;;;;;6306676;22;19990;-69
2023/06/28 00:24:18;;;;;;;;;;;15.90;49.70;;;;;;6306510;22;19960;-69
2023/06/28 00:26:44;;;;;;;;;;;15.80;49.80;;;;;;6306582;22;19907;-71
2023/06/28 00:29:09;;;;;;;;;;;15.80;49.90;;;;;;6307061;22;19917;-69
2023/06/28 00:31:35;;;;;;;;;;;15.80;50.00;;;;;;6306954;22;19982;-69
2023/06/28 00:34:00;;;;;;;;;;;15.80;50.10;;;;;;6306503;22;20308;-69
2023/06/28 00:36:26;;;;;;;;;;;15.80;50.10;;;;;;6279242;22;19907;-69
2023/06/28 00:38:51;;;;;;;;;;;15.70;50.20;;;;;;6307111;22;19965;-69
2023/06/28 00:41:17;;;;;;;;;;;15.70;50.30;;;;;;6306503;22;19907;-71
2023/06/28 00:43:42;;;;;;;;;;;15.70;50.60;;;;;;6307473;22;19907;-69
2023/06/28 00:46:07;;;;;;;;;;;15.70;50.60;;;;;;6306917;22;19911;-69
2023/06/28 00:48:33;;;;;;;;;;;15.60;50.70;;;;;;6306766;22;20372;-69
2023/06/28 00:50:59;;;;;;;;;;;15.60;50.80;;;;;;6306585;22;19907;-69
2023/06/28 00:53:24;;;;;;;;;;;15.60;50.80;;;;;;6306900;22;20209;-69
2023/06/28 00:55:50;;;;;;;;;;;15.50;50.90;;;;;;6306358;22;20377;-70
2023/06/28 00:58:15;;;;;;;;;;;15.50;51.00;;;;;;6307265;22;20343;-69
2023/06/28 01:00:44;;;;;;;;;;;15.40;51.10;;;;;;6307074;22;19998;-69
2023/06/28 01:03:10;;;;;;;;;;;15.40;51.30;;;;;;6306850;22;19964;-69
2023/06/28 01:05:35;;;;;;;;;;;15.40;51.20;;;;;;6306283;22;19907;-69
2023/06/28 01:08:01;;;;;;;;;;;15.30;51.20;;;;;;6306461;22;19961;-69
2023/06/28 01:10:27;;;;;;;;;;;15.30;51.20;;;;;;6278668;22;19907;-68
2023/06/28 01:12:52;;;;;;;;;;;15.30;51.20;;;;;;6306906;22;19922;-69
2023/06/28 01:15:18;;;;;;;;;;;15.20;51.40;;;;;;6306440;22;20321;-70
2023/06/28 01:17:43;;;;;;;;;;;15.20;51.60;;;;;;6306477;22;19972;-70
2023/06/28 01:20:09;;;;;;;;;;;15.20;51.80;;;;;;6306141;22;19903;-70
2023/06/28 01:22:35;;;;;;;;;;;15.20;51.90;;;;;;6305873;22;19998;-69
2023/06/28 01:25:01;;;;;;;;;;;15.10;52.00;;;;;;6278648;22;19934;-69
2023/06/28 01:27:26;;;;;;;;;;;15.10;52.00;;;;;;6306431;22;20252;-71
2023/06/28 01:29:57;;;;;;;;;;;15.00;52.20;;;;;;6306369;22;19934;-71
2023/06/28 01:32:23;;;;;;;;;;;15.10;52.40;;;;;;6306898;22;19911;-70
2023/06/28 01:34:48;;;;;;;;;;;15.00;52.40;;;;;;6305992;22;19918;-70
2023/06/28 01:37:14;;;;;;;;;;;15.00;52.60;;;;;;6306130;22;19926;-70
2023/06/28 01:39:39;;;;;;;;;;;15.00;52.70;;;;;;6305950;22;19903;-70
2023/06/28 01:42:06;;;;;;;;;;;15.00;53.00;;;;;;6306435;22;19911;-70
2023/06/28 01:44:31;;;;;;;;;;;14.90;52.80;;;;;;6306181;22;19934;-71
2023/06/28 01:46:57;;;;;;;;;;;14.90;52.90;;;;;;6306396;22;19937;-70
2023/06/28 01:49:25;;;;;;;;;;;14.80;52.90;;;;;;6305952;22;20317;-70
2023/06/28 01:51:51;;;;;;;;;;;14.80;53.10;;;;;;6306068;22;20272;-70
2023/06/28 01:54:18;;;;;;;;;;;14.80;53.00;;;;;;6305876;22;19907;-70
2023/06/28 01:56:43;;;;;;;;;;;14.80;53.30;;;;;;6305627;22;19911;-71
2023/06/28 01:59:09;;;;;;;;;;;14.80;53.50;;;;;;6306038;22;20308;-70
2023/06/28 02:01:34;;;;;;;;;;;14.80;53.50;;;;;;6305753;22;19957;-72
2023/06/28 02:04:00;;;;;;;;;;;14.80;53.30;;;;;;6306171;22;19956;-70
2023/06/28 02:06:25;;;;;;;;;;;14.70;53.30;;;;;;6305770;22;19906;-70
2023/06/28 02:08:51;;;;;;;;;;;14.70;53.30;;;;;;6306123;22;19911;-70
2023/06/28 02:11:16;;;;;;;;;;;14.70;53.30;;;;;;6305775;22;19984;-70
2023/06/28 02:13:42;;;;;;;;;;;14.70;53.20;;;;;;6306381;22;20006;-71
2023/06/28 02:16:07;;;;;;;;;;;14.70;53.30;;;;;;6305713;22;19960;-72
2023/06/28 02:18:34;;;;;;;;;;;14.60;53.30;;;;;;6306354;22;20317;-70
2023/06/28 02:21:00;;;;;;;;;;;14.60;53.30;;;;;;6305334;22;19957;-70
2023/06/28 02:23:25;;;;;;;;;;;14.60;53.30;;;;;;6305740;22;19910;-70
2023/06/28 02:25:51;;;;;;;;;;;14.50;53.50;;;;;;6305526;22;19989;-70
2023/06/28 02:28:16;;;;;;;;;;;14.50;53.60;;;;;;6305788;22;20267;-70
2023/06/28 02:30:41;;;;;;;;;;;14.50;53.50;;;;;;6305543;22;20313;-70
2023/06/28 02:33:07;;;;;;;;;;;14.50;53.50;;;;;;6306340;22;19907;-70
2023/06/28 02:35:32;;;;;;;;;;;14.40;53.70;;;;;;6278305;22;19960;-70
2023/06/28 02:37:58;;;;;;;;;;;14.50;53.90;;;;;;6306145;22;19952;-71
2023/06/28 02:40:26;;;;;;;;;;;14.40;54.00;;;;;;6305790;22;19911;-71
2023/06/28 02:42:51;;;;;;;;;;;14.40;53.90;;;;;;6306136;22;19907;-71
2023/06/28 02:45:17;;;;;;;;;;;14.40;53.80;;;;;;6305733;22;19914;-70
2023/06/28 02:47:42;;;;;;;;;;;14.40;54.00;;;;;;6306214;22;19918;-70
2023/06/28 02:50:08;;;;;;;;;;;14.30;54.00;;;;;;6305791;22;19907;-70
2023/06/28 02:52:33;;;;;;;;;;;14.30;54.10;;;;;;6305722;22;20013;-70
2023/06/28 02:54:59;;;;;;;;;;;14.30;54.20;;;;;;6278176;22;19934;-71
2023/06/28 02:57:24;;;;;;;;;;;14.30;54.40;;;;;;6305886;22;20314;-70
2023/06/28 02:59:50;;;;;;;;;;;14.30;54.40;;;;;;6305497;22;19909;-70
2023/06/28 03:02:15;;;;;;;;;;;14.30;54.30;;;;;;6306047;22;19915;-71
2023/06/28 03:04:41;;;;;;;;;;;14.30;54.30;;;;;;6305647;22;19903;-70
2023/06/28 03:07:11;;;;;;;;;;;14.30;54.40;;;;;;6305752;22;19930;-71
2023/06/28 03:09:37;;;;;;;;;;;14.30;54.30;;;;;;6305761;22;19986;-71
2023/06/28 03:12:02;;;;;;;;;;;14.30;54.30;;;;;;6278421;22;20293;-71
2023/06/28 03:14:28;;;;;;;;;;;14.30;54.50;;;;;;6305528;22;19903;-71
2023/06/28 03:16:53;;;;;;;;;;;14.30;54.60;;;;;;6305655;22;19911;-70
2023/06/28 03:19:18;;;;;;;;;;;14.40;54.80;;;;;;6305782;22;19903;-71
2023/06/28 03:21:44;;;;;;;;;;;14.40;54.90;;;;;;6305475;22;19907;-71
2023/06/28 03:24:09;;;;;;;;;;;14.50;55.00;;;;;;6305541;22;20029;-71
2023/06/28 03:26:35;;;;;;;;;;;14.50;55.00;;;;;;6305277;22;19903;-70
2023/06/28 03:29:00;;;;;;;;;;;14.70;55.20;;;;;;6305545;22;19909;-71
2023/06/28 03:31:26;;;;;;;;;;;14.80;55.30;;;;;;6305493;22;19913;-71
2023/06/28 03:33:51;;;;;;;;;;;14.90;55.40;;;;;;6308122;22;19933;-71
2023/06/28 03:36:16;;;;;;;;;;;15.10;55.70;;;;;;6307559;22;19902;-71
2023/06/28 03:38:42;;;;;;;;;;;15.30;55.90;;;;;;6307914;22;19911;-71
2023/06/28 03:41:07;;;;;;;;;;;15.50;56.10;;;;;;6307445;22;19902;-70
2023/06/28 03:43:33;;;;;;;;;;;15.80;56.00;;;;;;6307929;22;19911;-71
2023/06/28 03:45:58;;;;;;;;;;;16.00;56.00;;;;;;6307302;22;19925;-69
2023/06/28 03:48:24;;;;;;;;;;;16.40;56.10;;;;;;6307701;22;19925;-69
2023/06/28 03:50:49;;;;;;;;;;;16.70;56.10;;;;;;6279655;22;19909;-69
2023/06/28 03:53:14;;;;;;;;;;;17.10;56.10;;;;;;6307614;22;19986;-69
2023/06/28 03:55:40;;;;;;;;;;;17.40;56.20;;;;;;6306982;22;20019;-69
2023/06/28 03:58:05;;;;;;;;;;;17.80;56.10;;;;;;6306958;22;19911;-69
2023/06/28 04:00:31;;;;;;;;;;;18.30;55.90;;;;;;6306947;22;19915;-70
2023/06/28 04:02:57;;;;;;;;;;;18.60;55.80;;;;;;6307505;22;20008;-69
2023/06/28 04:05:22;;;;;;;;;;;19.00;55.60;;;;;;6307448;22;19907;-69
2023/06/28 04:07:54;;;;;;;;;;;19.40;55.40;;;;;;6307148;22;19914;-70
2023/06/28 04:10:20;;;;;;;;;;;19.80;55.30;;;;;;6307088;22;19903;-69
2023/06/28 04:12:45;;;;;;;;;;;20.30;55.00;;;;;;6307303;22;20239;-69
2023/06/28 04:15:11;;;;;;;;;;;20.70;54.50;;;;;;6307205;22;19903;-70
2023/06/28 04:17:36;;;;;;;;;;;21.00;54.10;;;;;;6307442;22;19915;-70
2023/06/28 04:20:05;;;;;;;;;;;21.40;53.40;;;;;;6307423;22;19902;-69
2023/06/28 04:22:31;;;;;;;;;;;21.80;53.20;;;;;;6307485;22;19942;-68
2023/06/28 04:24:56;;;;;;;;;;;22.30;52.30;;;;;;6307094;22;19914;-70
2023/06/28 04:27:22;;;;;;;;;;;22.70;52.20;;;;;;6307137;22;20225;-69
2023/06/28 04:29:47;;;;;;;;;;;23.20;50.50;;;;;;6306997;22;20241;-70
2023/06/28 04:32:20;;;;;;;;;;;23.50;49.40;;;;;;6306737;22;20389;-70
2023/06/28 04:34:46;;;;;;;;;;;23.70;48.70;;;;;;6306919;22;19931;-70
2023/06/28 04:37:12;;;;;;;;;;;23.80;47.90;;;;;;6307197;22;20272;-70
2023/06/28 04:39:37;;;;;;;;;;;23.80;47.40;;;;;;6307033;22;20382;-70
2023/06/28 04:42:03;;;;;;;;;;;23.70;46.80;;;;;;6307140;22;20244;-69
2023/06/28 04:44:34;;;;;;;;;;;23.60;46.70;;;;;;6306600;22;19903;-69
2023/06/28 04:46:59;;;;;;;;;;;23.50;46.60;;;;;;6306521;22;19915;-69
2023/06/28 04:49:24;;;;;;;;;;;23.30;46.40;;;;;;6306901;22;19903;-69
2023/06/28 04:51:50;;;;;;;;;;;23.30;46.40;;;;;;6306612;22;19903;-69
2023/06/28 04:54:16;;;;;;;;;;;23.20;46.30;;;;;;6306760;22;20233;-70
2023/06/28 04:56:45;;;;;;;;;;;23.10;46.30;;;;;;6306606;22;19911;-69
2023/06/28 04:59:10;;;;;;;;;;;23.00;46.30;;;;;;6306834;22;19907;-69
2023/06/28 05:01:37;;;;;;;;;;;23.00;46.40;;;;;;6306905;22;19976;-69
2023/06/28 05:04:03;;;;;;;;;;;23.00;46.30;;;;;;6306530;22;19914;-69
2023/06/28 05:06:29;;;;;;;;;;;22.90;46.30;;;;;;6306584;22;20013;-69
2023/06/28 05:08:54;;;;;;;;;;;22.90;46.30;;;;;;6307032;22;19961;-69
2023/06/28 05:11:20;;;;;;;;;;;22.90;46.30;;;;;;6306514;22;19915;-69
2023/06/28 05:13:45;;;;;;;;;;;22.90;46.40;;;;;;6307066;22;19907;-69
2023/06/28 05:16:11;;;;;;;;;;;22.90;46.40;;;;;;6278859;22;19914;-70
2023/06/28 05:18:36;;;;;;;;;;;22.90;46.30;;;;;;6307440;22;20229;-70
2023/06/28 05:21:02;;;;;;;;;;;22.90;46.30;;;;;;6306494;22;19990;-70
2023/06/28 05:23:27;;;;;;;;;;;23.00;46.20;;;;;;6306822;22;19938;-70
2023/06/28 05:25:52;;;;;;;;;;;22.90;46.30;;;;;;6306338;22;19994;-70
2023/06/28 05:28:18;;;;;;;;;;;23.00;46.30;;;;;;6306645;22;19989;-70
2023/06/28 05:30:44;;;;;;;;;;;22.90;46.40;;;;;;6306377;22;19922;-70
2023/06/28 05:33:10;;;;;;;;;;;23.00;46.40;;;;;;6306421;22;19942;-70
2023/06/28 05:35:35;;;;;;;;;;;23.10;46.40;;;;;;6306180;22;20292;-70
2023/06/28 05:38:04;;;;;;;;;;;23.20;46.30;;;;;;6306421;22;19906;-69
2023/06/28 05:40:31;;;;;;;;;;;23.30;46.20;;;;;;6306871;22;20244;-69
2023/06/28 05:42:58;;;;;;;;;;;23.40;46.20;;;;;;6306538;22;19918;-69
2023/06/28 05:45:24;;;;;;;;;;;23.60;46.30;;;;;;6306389;22;19913;-69
2023/06/28 05:47:50;;;;;;;;;;;23.70;46.20;;;;;;6306277;22;20350;-70
2023/06/28 05:50:16;;;;;;;;;;;23.80;46.10;;;;;;6306101;22;19906;-70
2023/06/28 05:52:43;;;;;;;;;;;24.00;46.10;;;;;;6306688;22;20033;-69
2023/06/28 05:55:08;;;;;;;;;;;24.20;46.00;;;;;;6305563;22;19985;-70
2023/06/28 05:57:34;;;;;;;;;;;24.40;45.80;;;;;;6305863;22;19946;-69
2023/06/28 05:59:59;;;;;;;;;;;24.50;45.50;;;;;;6305884;22;19982;-69
2023/06/28 06:02:27;;;;;;;;;;;24.70;45.10;;;;;;6278656;22;20321;-70
2023/06/28 06:04:54;;;;;;;;;;;24.80;44.80;;;;;;6305387;22;21370;-70
2023/06/28 06:07:19;;;;;;;;;;;25.00;44.50;;;;;;6306096;22;19990;-70
2023/06/28 06:09:45;;;;;;;;;;;25.10;44.20;;;;;;6306148;22;20364;-69
2023/06/28 06:12:10;;;;;;;;;;;25.30;44.20;;;;;;6305891;22;20363;-68
2023/06/28 06:14:36;;;;;;;;;;;25.50;44.00;;;;;;6305855;22;19960;-68
2023/06/28 06:17:01;;;;;;;;;;;25.80;43.60;;;;;;6305851;22;20312;-68
2023/06/28 06:19:26;;;;;;;;;;;26.00;42.90;;;;;;6305854;22;19942;-68
2023/06/28 06:21:52;;;;;;;;;;;26.10;42.40;;;;;;6305838;22;19915;-68
2023/06/28 06:24:17;;;;;;;;;;;26.20;42.00;;;;;;6306041;22;19911;-68
2023/06/28 06:26:43;;;;;;;;;;;26.30;41.60;;;;;;6305428;22;19941;-68
2023/06/28 06:29:08;;;;;;;;;;;26.30;40.70;;;;;;6305674;22;19915;-68
2023/06/28 06:31:34;;;;;;;;;;;26.20;40.70;;;;;;6305616;22;19910;-68
2023/06/28 06:34:02;;;;;;;;;;;26.20;40.80;;;;;;6305660;22;19906;-68
2023/06/28 06:36:27;;;;;;;;;;;26.20;40.80;;;;;;6305686;22;19910;-68
2023/06/28 06:38:53;;;;;;;;;;;26.30;40.70;;;;;;6306212;22;20284;-68
2023/06/28 06:41:19;;;;;;;;;;;26.40;40.90;;;;;;6305859;22;19930;-68
2023/06/28 06:43:44;;;;;;;;;;;26.60;40.80;;;;;;6306231;22;19907;-69
2023/06/28 06:46:10;;;;;;;;;;;26.70;40.60;;;;;;6305626;22;19910;-68
2023/06/28 06:48:37;;;;;;;;;;;26.80;40.40;;;;;;6305920;22;19911;-68
2023/06/28 06:51:04;;;;;;;;;;;27.00;40.30;;;;;;6305644;22;19907;-68
2023/06/28 06:53:29;;;;;;;;;;;27.20;40.20;;;;;;6306331;22;19913;-69
2023/06/28 06:55:55;;;;;;;;;;;27.40;39.90;;;;;;6305124;22;20344;-69
2023/06/28 06:58:20;;;;;;;;;;;27.60;39.70;;;;;;6306226;22;19907;-69
2023/06/28 07:00:46;;;;;;;;;;;27.90;39.50;;;;;;6305581;22;19911;-69
2023/06/28 07:03:12;;;;;;;;;;;28.30;39.50;;;;;;6306015;22;19910;-70
2023/06/28 07:05:37;;;;;;;;;;;28.70;39.10;;;;;;6305719;22;19963;-69
2023/06/28 07:08:03;;;;;;;;;;;29.20;38.70;;;;;;6307816;22;20240;-69
2023/06/28 07:10:28;;;;;;;;;;;29.40;37.70;;;;;;6307725;22;19986;-69
2023/06/28 07:12:54;;;;;;;;;;;29.60;36.90;;;;;;6308345;22;19946;-69
2023/06/28 07:15:19;;;;;;;;;;;29.70;36.50;;;;;;6307914;22;19941;-69
2023/06/28 07:17:45;;;;;;;;;;;29.70;35.90;;;;;;6308142;22;19907;-69
2023/06/28 07:20:10;;;;;;;;;;;29.60;35.80;;;;;;6307844;22;19907;-69
2023/06/28 07:22:36;;;;;;;;;;;29.60;35.70;;;;;;6280332;22;20356;-69
2023/06/28 07:25:03;;;;;;;;;;;29.60;35.60;;;;;;6307829;22;20277;-69
2023/06/28 07:27:29;;;;;;;;;;;29.70;35.50;;;;;;6308111;22;19910;-69
2023/06/28 07:29:55;;;;;;;;;;;29.80;35.60;;;;;;6307961;22;20317;-69
2023/06/28 07:32:20;;;;;;;;;;;30.10;35.80;;;;;;6307649;22;20018;-69
2023/06/28 07:34:46;;;;;;;;;;;30.70;35.50;;;;;;6307968;22;19946;-70
2023/06/28 07:37:11;;;;;;;;;;;31.30;34.90;;;;;;6307733;22;20373;-71
2023/06/28 07:39:37;;;;;;;;;;;32.20;34.50;;;;;;6307703;22;20028;-70
2023/06/28 07:42:02;;;;;;;;;;;33.10;32.70;;;;;;6307927;22;19949;-71
2023/06/28 07:44:28;;;;;;;;;;;33.70;31.70;;;;;;6307813;22;19907;-70
2023/06/28 07:46:53;;;;;;;;;;;34.30;31.40;;;;;;6307444;22;19911;-70
2023/06/28 07:49:19;;;;;;;;;;;35.10;30.80;;;;;;6307439;22;19982;-69
2023/06/28 07:51:44;;;;;;;;;;;35.70;28.80;;;;;;6307421;22;19942;-69
2023/06/28 07:54:09;;;;;;;;;;;36.10;27.50;;;;;;6280043;22;19907;-69
2023/06/28 07:56:35;;;;;;;;;;;36.40;27.40;;;;;;6307127;22;19960;-71
2023/06/28 07:59:02;;;;;;;;;;;36.80;27.30;;;;;;6307565;22;19911;-69
2023/06/28 08:01:28;;;;;;;;;;;37.20;26.20;;;;;;6307271;22;19976;-70
2023/06/28 08:03:53;;;;;;;;;;;37.30;25.60;;;;;;6307816;22;19903;-71
2023/06/28 08:06:19;;;;;;;;;;;37.70;24.90;;;;;;6307169;22;20240;-70
2023/06/28 08:08:46;;;;;;;;;;;37.60;24.30;;;;;;6307745;22;20259;-70
2023/06/28 08:11:12;;;;;;;;;;;37.30;24.00;;;;;;6307237;22;19911;-70
2023/06/28 08:13:37;;;;;;;;;;;37.20;24.10;;;;;;6307959;22;19903;-70
2023/06/28 08:16:03;;;;;;;;;;;37.10;24.00;;;;;;6307331;22;20347;-70
2023/06/28 08:18:28;;;;;;;;;;;37.00;23.90;;;;;;6307071;22;20271;-70
2023/06/28 08:20:54;;;;;;;;;;;36.50;24.20;;;;;;6307060;22;19911;-70
2023/06/28 08:23:21;;;;;;;;;;;36.60;25.10;;;;;;6307418;22;19910;-70
2023/06/28 08:25:46;;;;;;;;;;;37.00;25.10;;;;;;6307146;22;19915;-70
2023/06/28 08:28:12;;;;;;;;;;;37.50;24.80;;;;;;6307413;22;19929;-70
2023/06/28 08:30:37;;;;;;;;;;;38.00;24.20;;;;;;6307438;22;19911;-70
2023/06/28 08:33:03;;;;;;;;;;;38.20;23.50;;;;;;6307366;22;20048;-70
2023/06/28 08:35:28;;;;;;;;;;;38.30;23.20;;;;;;6307000;22;20325;-70
2023/06/28 08:37:54;;;;;;;;;;;38.30;23.10;;;;;;6307268;22;19952;-70
2023/06/28 08:40:19;;;;;;;;;;;37.80;22.80;;;;;;6306867;22;19914;-70
2023/06/28 08:42:46;;;;;;;;;;;37.30;23.20;;;;;;6307509;22;19907;-71
2023/06/28 08:45:12;;;;;;;;;;;37.40;23.90;;;;;;6307233;22;19907;-70
2023/06/28 08:47:38;;;;;;;;;;;37.80;24.20;;;;;;6307229;22;19910;-70
2023/06/28 08:50:03;;;;;;;;;;;38.40;22.80;;;;;;6306770;22;20341;-70
2023/06/28 08:52:30;;;;;;;;;;;38.70;22.00;;;;;;6306808;22;19952;-69
2023/06/28 08:54:56;;;;;;;;;;;38.60;21.90;;;;;;6306456;22;20240;-69
2023/06/28 08:57:21;;;;;;;;;;;38.70;22.00;;;;;;6306711;22;20229;-70
2023/06/28 08:59:47;;;;;;;;;;;38.80;21.90;;;;;;6306715;22;19933;-70
2023/06/28 09:02:19;;;;;;;;;;;38.70;21.50;;;;;;6306444;22;19907;-71
2023/06/28 09:04:47;;;;;;;;;;;38.50;21.70;;;;;;6306771;22;19907;-70
2023/06/28 09:07:15;;;;;;;;;;;38.40;22.20;;;;;;6306567;22;20305;-71
2023/06/28 09:09:42;;;;;;;;;;;38.30;21.60;;;;;;6279340;22;19911;-70
2023/06/28 09:12:08;;;;;;;;;;;38.00;21.50;;;;;;6306438;22;19907;-69
2023/06/28 09:14:33;;;;;;;;;;;37.80;22.00;;;;;;6306685;22;19906;-70
2023/06/28 09:16:59;;;;;;;;;;;37.60;21.90;;;;;;6306530;22;20304;-70
2023/06/28 09:19:24;;;;;;;;;;;37.50;22.20;;;;;;6306696;22;20245;-70
2023/06/28 09:21:49;;;;;;;;;;;37.30;22.50;;;;;;6279552;22;20288;-68
2023/06/28 09:24:15;;;;;;;;;;;37.40;22.70;;;;;;6306281;22;19953;-70
2023/06/28 09:26:41;;;;;;;;;;;37.40;22.50;;;;;;6306546;22;19903;-69
2023/06/28 09:29:08;;;;;;;;;;;37.40;22.60;;;;;;6306231;22;19964;-69
2023/06/28 09:31:38;;;;;;;;;;;37.50;22.70;;;;;;6306238;22;19968;-70
2023/06/28 09:34:03;;;;;;;;;;;37.50;22.30;;;;;;6306534;22;20394;-67
2023/06/28 09:36:29;;;;;;;;;;;37.70;22.60;;;;;;6306313;22;19903;-68
2023/06/28 09:38:55;;;;;;;;;;;37.60;22.50;;;;;;6306288;22;19903;-69
2023/06/28 09:41:21;;;;;;;;;;;37.50;22.50;;;;;;6279256;22;20048;-69
2023/06/28 09:43:46;;;;;;;;;;;37.40;22.40;;;;;;6306891;22;19907;-69
2023/06/28 09:46:16;;;;;;;;;;;37.20;22.60;;;;;;6278840;22;19915;-69
2023/06/28 09:48:48;;;;;;;;;;;37.10;22.70;;;;;;6306549;22;19907;-68
2023/06/28 09:51:17;;;;;;;;;;;37.00;22.80;;;;;;6306431;22;19915;-70
2023/06/28 09:54:01;;;;;;;;;;;36.80;23.20;;;;;;6306835;22;20313;-69
2023/06/28 09:56:36;;;;;;;;;;;37.10;23.40;;;;;;6305974;22;20317;-69
2023/06/28 09:59:04;;;;;;;;;;;37.80;22.90;;;;;;6278709;22;20240;-68
2023/06/28 10:01:29;;;;;;;;;;;38.30;21.70;;;;;;6306142;22;19902;-68
2023/06/28 10:03:56;;;;;;;;;;;38.50;21.50;;;;;;6305911;22;20336;-70
2023/06/28 10:06:22;;;;;;;;;;;38.60;21.50;;;;;;6306315;22;19907;-69
2023/06/28 10:08:47;;;;;;;;;;;38.60;21.20;;;;;;6306568;22;19968;-69
2023/06/28 10:11:14;;;;;;;;;;;38.40;21.10;;;;;;6304788;22;19914;-69
2023/06/28 10:13:40;;;;;;;;;;;38.30;21.30;;;;;;6306567;22;19957;-69
2023/06/28 10:16:07;;;;;;;;;;;38.30;21.70;;;;;;6305217;22;19986;-69
2023/06/28 10:18:33;;;;;;;;;;;38.40;21.30;;;;;;6276461;22;19911;-69
2023/06/28 10:21:05;;;;;;;;;;;38.40;21.00;;;;;;6305646;22;19913;-69
2023/06/28 10:23:35;;;;;;;;;;;38.30;21.20;;;;;;6306073;22;20321;-69
2023/06/28 10:26:02;;;;;;;;;;;38.30;21.50;;;;;;6305750;22;19914;-69
2023/06/28 10:28:29;;;;;;;;;;;38.30;21.40;;;;;;6305648;22;19907;-69
2023/06/28 10:30:55;;;;;;;;;;;38.20;21.20;;;;;;6305652;22;19919;-69
2023/06/28 10:33:23;;;;;;;;;;;37.90;21.20;;;;;;6305971;22;19910;-69
2023/06/28 10:35:49;;;;;;;;;;;37.60;21.00;;;;;;6305825;22;19982;-70
2023/06/28 10:38:15;;;;;;;;;;;37.30;21.30;;;;;;6306095;22;19941;-70
2023/06/28 10:40:41;;;;;;;;;;;37.10;21.40;;;;;;6305584;22;19910;-69
2023/06/28 10:43:06;;;;;;;;;;;36.80;21.60;;;;;;6306125;22;19906;-70
2023/06/28 10:45:35;;;;;;;;;;;36.70;22.00;;;;;;6305904;22;19915;-69
2023/06/28 10:48:02;;;;;;;;;;;36.70;22.30;;;;;;6306197;22;20281;-69
2023/06/28 10:50:27;;;;;;;;;;;36.80;22.20;;;;;;6305555;22;19914;-69
2023/06/28 10:52:54;;;;;;;;;;;36.60;22.20;;;;;;6305768;22;20331;-69
2023/06/28 10:55:30;;;;;;;;;;;36.40;22.10;;;;;;6305366;22;19919;-69
2023/06/28 10:58:13;;;;;;;;;;;36.10;22.60;;;;;;6305965;22;20394;-69
2023/06/28 11:00:45;;;;;;;;;;;35.80;22.80;;;;;;6305890;22;19907;-70
2023/06/28 11:03:11;;;;;;;;;;;35.70;22.80;;;;;;6306007;22;19930;-70
2023/06/28 11:05:37;;;;;;;;;;;35.70;23.30;;;;;;6305668;22;19911;-69
2023/06/28 11:08:21;;;;;;;;;;;35.90;23.50;;;;;;6305642;22;19911;-69
2023/06/28 11:10:48;;;;;;;;;;;36.00;23.10;;;;;;6305428;22;19911;-69
2023/06/28 11:13:15;;;;;;;;;;;36.00;23.40;;;;;;6305692;22;19907;-70
2023/06/28 11:15:42;;;;;;;;;;;35.90;23.20;;;;;;6305887;22;19907;-69
2023/06/28 11:18:20;;;;;;;;;;;35.90;23.20;;;;;;6306047;22;19945;-69
2023/06/28 11:20:47;;;;;;;;;;;35.80;23.20;;;;;;6305385;22;19911;-70
2023/06/28 11:23:24;;;;;;;;;;;35.90;23.40;;;;;;6305707;22;19911;-69
2023/06/28 11:25:57;;;;;;;;;;;36.30;23.50;;;;;;6305370;22;20245;-68
2023/06/28 11:28:28;;;;;;;;;;;36.80;23.20;;;;;;6305838;22;19911;-69
2023/06/28 11:30:54;;;;;;;;;;;37.30;22.80;;;;;;6305766;22;19907;-68
2023/06/28 11:33:20;;;;;;;;;;;37.70;22.60;;;;;;6305794;22;19907;-68
2023/06/28 11:35:46;;;;;;;;;;;38.00;22.30;;;;;;6305591;22;19952;-69
2023/06/28 11:38:13;;;;;;;;;;;38.30;21.80;;;;;;6306043;22;19910;-69
2023/06/28 11:40:38;;;;;;;;;;;38.20;21.70;;;;;;6305384;22;20325;-68
2023/06/28 11:43:04;;;;;;;;;;;38.20;21.50;;;;;;6305642;22;19907;-69
2023/06/28 11:45:31;;;;;;;;;;;38.00;21.00;;;;;;6305316;22;19930;-69
2023/06/28 11:47:57;;;;;;;;;;;37.60;21.70;;;;;;6305406;22;19967;-69
2023/06/28 11:50:22;;;;;;;;;;;37.50;21.90;;;;;;6304960;22;20238;-69
2023/06/28 11:52:48;;;;;;;;;;;37.50;22.20;;;;;;6305400;22;19914;-69
2023/06/28 11:55:14;;;;;;;;;;;37.70;22.20;;;;;;6307091;22;19915;-69
2023/06/28 11:57:44;;;;;;;;;;;37.80;22.20;;;;;;6307378;22;19982;-69
2023/06/28 12:00:10;;;;;;;;;;;37.90;22.00;;;;;;6307171;22;20328;-68
2023/06/28 12:02:45;;;;;;;;;;;38.10;22.00;;;;;;6307548;22;19913;-68
2023/06/28 12:05:11;;;;;;;;;;;38.30;22.00;;;;;;6307238;22;19914;-69
2023/06/28 12:07:36;;;;;;;;;;;38.40;21.70;;;;;;6307243;22;19918;-69
2023/06/28 12:10:02;;;;;;;;;;;38.40;21.60;;;;;;6307118;22;20190;-69
2023/06/28 12:12:34;;;;;;;;;;;38.50;21.70;;;;;;6307155;22;19922;-69
2023/06/28 12:14:59;;;;;;;;;;;38.50;21.20;;;;;;6306939;22;19960;-69
2023/06/28 12:17:25;;;;;;;;;;;38.40;21.30;;;;;;6307174;22;20308;-69
2023/06/28 12:19:52;;;;;;;;;;;38.40;21.20;;;;;;6307011;22;20268;-69
2023/06/28 12:22:18;;;;;;;;;;;38.30;21.40;;;;;;6307298;22;19907;-69
2023/06/28 12:24:43;;;;;;;;;;;38.30;21.30;;;;;;6307283;22;19911;-69
2023/06/28 12:27:09;;;;;;;;;;;38.30;21.10;;;;;;6307124;22;19949;-68
2023/06/28 12:29:35;;;;;;;;;;;38.30;21.30;;;;;;6306917;22;19907;-68
2023/06/28 12:32:08;;;;;;;;;;;38.20;21.60;;;;;;6306903;22;19907;-68
2023/06/28 12:34:34;;;;;;;;;;;38.10;21.50;;;;;;6306853;22;19933;-68
2023/06/28 12:37:01;;;;;;;;;;;38.10;21.60;;;;;;6307005;22;19907;-69
2023/06/28 12:39:28;;;;;;;;;;;37.90;21.60;;;;;;6306533;22;19914;-69
2023/06/28 12:42:20;;;;;;;;;;;37.80;21.90;;;;;;6306843;22;19906;-69
2023/06/28 12:44:55;;;;;;;;;;;37.80;22.10;;;;;;6272199;22;20316;-69
2023/06/28 12:47:21;;;;;;;;;;;38.00;22.30;;;;;;6279392;22;20470;-69
2023/06/28 12:49:47;;;;;;;;;;;38.30;22.30;;;;;;6279777;22;19911;-69
2023/06/28 12:52:12;;;;;;;;;;;38.40;22.20;;;;;;6306845;22;19918;-69
2023/06/28 12:54:38;;;;;;;;;;;38.60;22.10;;;;;;6306727;22;19945;-69
2023/06/28 12:57:04;;;;;;;;;;;38.70;21.90;;;;;;6306941;22;19946;-69
2023/06/28 12:59:30;;;;;;;;;;;38.70;21.50;;;;;;6306807;22;20268;-69
2023/06/28 13:01:55;;;;;;;;;;;38.40;21.90;;;;;;6306767;22;19907;-70
2023/06/28 13:04:21;;;;;;;;;;;38.30;22.00;;;;;;6306631;22;20325;-69
2023/06/28 13:06:46;;;;;;;;;;;38.20;22.20;;;;;;6306384;22;19907;-70
2023/06/28 13:09:12;;;;;;;;;;;38.30;22.40;;;;;;6306302;22;19918;-69
2023/06/28 13:11:37;;;;;;;;;;;38.50;22.30;;;;;;6306484;22;19956;-69
2023/06/28 13:14:03;;;;;;;;;;;38.70;22.10;;;;;;6279130;22;19964;-67
2023/06/28 13:16:28;;;;;;;;;;;38.80;22.10;;;;;;6306339;22;19926;-70
2023/06/28 13:18:54;;;;;;;;;;;39.00;22.00;;;;;;6307092;22;19907;-71
2023/06/28 13:21:19;;;;;;;;;;;38.90;21.70;;;;;;6306638;22;19953;-70
2023/06/28 13:23:45;;;;;;;;;;;38.70;21.80;;;;;;6306922;22;19911;-70
2023/06/28 13:26:11;;;;;;;;;;;38.50;21.80;;;;;;6279287;22;19946;-70
2023/06/28 13:28:36;;;;;;;;;;;38.40;22.10;;;;;;6306902;22;19946;-68
2023/06/28 13:31:02;;;;;;;;;;;38.30;22.30;;;;;;6306425;22;20341;-69
2023/06/28 13:33:28;;;;;;;;;;;38.10;22.50;;;;;;6306361;22;19906;-69
2023/06/28 13:35:53;;;;;;;;;;;38.00;22.60;;;;;;6279319;22;20001;-69
2023/06/28 13:38:19;;;;;;;;;;;37.80;22.60;;;;;;6307248;22;20289;-69
2023/06/28 13:40:44;;;;;;;;;;;37.60;22.60;;;;;;6306459;22;20232;-70
2023/06/28 13:43:10;;;;;;;;;;;37.10;22.80;;;;;;6306928;22;19929;-70
2023/06/28 13:45:36;;;;;;;;;;;36.80;23.30;;;;;;6306530;22;19914;-69
2023/06/28 13:48:02;;;;;;;;;;;36.50;23.50;;;;;;6279419;22;19911;-69
2023/06/28 13:50:27;;;;;;;;;;;36.20;23.80;;;;;;6305964;22;19914;-71
2023/06/28 13:52:53;;;;;;;;;;;36.00;24.10;;;;;;6306641;22;19907;-69
2023/06/28 13:55:18;;;;;;;;;;;35.90;24.30;;;;;;6305870;22;19946;-69
2023/06/28 13:57:44;;;;;;;;;;;35.80;24.40;;;;;;6306814;22;20232;-70
2023/06/28 14:00:10;;;;;;;;;;;35.70;24.60;;;;;;6306224;22;19911;-69
2023/06/28 14:02:35;;;;;;;;;;;35.50;24.80;;;;;;6306176;22;19945;-69
2023/06/28 14:05:01;;;;;;;;;;;35.40;24.90;;;;;;6305919;22;19907;-70
2023/06/28 14:07:26;;;;;;;;;;;35.20;25.20;;;;;;6278962;22;19915;-69
2023/06/28 14:09:51;;;;;;;;;;;35.10;25.40;;;;;;6306101;22;19910;-70